Time;durP1;ratioP1;P1;durP2;ratioP2;P2;SDS_P1;SDS_P2;PMS_P1;PMS_P2;Temp;Humidity;BMP_temperature;BMP_pressure;BME280_temperature;BME280_humidity;BME280_pressure;Samples;Min_cycle;Max_cycle;Signal;HPM_P1;HPM_P2
2022/02/07 08:02:38;;;;;;;16.00;3.70;;;;;;;3.74;100.00;101360.50;4856480;29;20038;-92
2022/02/07 08:08:36;;;;;;;16.58;3.25;;;;;;;3.71;100.00;101384.59;4494348;29;4115271;-91
2022/02/07 08:13:47;;;;;;;13.63;3.92;;;;;;;3.67;100.00;101399.88;5044432;27;20583;-85
2022/02/07 08:16:13;;;;;;;15.70;2.35;;;;;;;3.71;100.00;101397.88;5059340;28;20038;-85
2022/02/07 08:18:38;;;;;;;14.65;2.90;;;;;;;3.73;100.00;101406.59;5050410;28;20049;-85
2022/02/07 08:21:04;;;;;;;16.02;3.20;;;;;;;3.71;100.00;101409.38;5046140;28;20041;-85
2022/02/07 08:23:30;;;;;;;16.23;3.50;;;;;;;3.69;100.00;101405.97;5046897;28;20053;-85
2022/02/07 08:25:58;;;;;;;16.10;4.07;;;;;;;3.71;100.00;101398.75;5032552;28;20052;-85
2022/02/07 08:28:23;;;;;;;20.13;3.97;;;;;;;3.74;100.00;101413.59;5028954;28;20565;-85
2022/02/07 08:30:49;;;;;;;14.07;3.47;;;;;;;3.79;100.00;101441.53;5049048;28;20049;-85
2022/02/07 08:33:15;;;;;;;16.20;3.63;;;;;;;3.82;100.00;101421.88;5015307;28;20046;-85
2022/02/07 08:35:40;;;;;;;13.10;3.03;;;;;;;3.86;100.00;101438.47;5035257;28;20482;-85
2022/02/07 08:38:05;;;;;;;15.93;4.03;;;;;;;3.90;100.00;101445.25;5037466;28;20046;-86
2022/02/07 08:40:33;;;;;;;20.08;4.20;;;;;;;3.94;100.00;101467.97;5043344;28;20128;-85
2022/02/07 08:42:59;;;;;;;19.05;4.47;;;;;;;3.96;100.00;101460.78;5060806;28;20124;-85
2022/02/07 08:45:25;;;;;;;17.67;4.35;;;;;;;4.00;100.00;101462.25;5043951;28;20511;-85
2022/02/07 08:47:51;;;;;;;14.18;3.65;;;;;;;4.06;100.00;101472.47;4990826;28;20050;-86
2022/02/07 08:50:16;;;;;;;13.60;2.88;;;;;;;4.12;100.00;101456.13;4985618;28;20046;-86
2022/02/07 08:52:47;;;;;;;18.70;3.42;;;;;;;4.19;100.00;101478.63;4984992;28;20254;-85
2022/02/07 08:55:19;;;;;;;20.95;4.15;;;;;;;4.25;100.00;101494.13;4985857;28;20049;-86
2022/02/07 08:57:47;;;;;;;14.27;3.03;;;;;;;4.29;100.00;101498.28;4988240;28;20387;-86
2022/02/07 09:02:52;;;;;;;22.45;4.60;;;;;;;4.36;100.00;101511.16;4975339;28;20051;-86
2022/02/07 09:05:36;;;;;;;21.33;5.00;;;;;;;4.34;100.00;101516.56;4982953;28;20054;-86
2022/02/07 09:10:47;;;;;;;15.27;2.85;;;;;;;4.44;100.00;101508.81;4999177;28;20050;-86
2022/02/07 09:13:14;;;;;;;23.00;4.22;;;;;;;4.50;100.00;101516.34;4971750;28;20091;-85
2022/02/07 09:15:47;;;;;;;28.02;3.70;;;;;;;4.55;100.00;101522.22;4986261;28;20050;-86
2022/02/07 09:18:12;;;;;;;20.13;5.07;;;;;;;4.60;100.00;101516.56;5004195;28;20062;-86
2022/02/07 09:20:41;;;;;;;22.80;3.92;;;;;;;4.63;100.00;101530.50;5024741;28;20526;-86
2022/02/07 09:23:07;;;;;;;18.98;4.72;;;;;;;4.69;100.00;101540.69;5032503;28;20045;-86
2022/02/07 09:25:33;;;;;;;21.98;4.10;;;;;;;4.76;100.00;101541.09;5015276;28;20037;-86
2022/02/07 09:27:59;;;;;;;19.98;4.32;;;;;;;4.79;100.00;101540.88;5021939;28;20092;-86
2022/02/07 09:30:25;;;;;;;16.13;4.55;;;;;;;4.85;100.00;101542.25;5037627;28;20121;-86
2022/02/07 09:32:51;;;;;;;20.27;4.40;;;;;;;4.90;100.00;101564.06;5022614;28;20060;-87
2022/02/07 09:35:17;;;;;;;21.05;3.38;;;;;;;4.93;100.00;101558.53;5022357;28;20042;-85
2022/02/07 09:37:43;;;;;;;20.70;3.25;;;;;;;5.01;100.00;101547.34;5010744;28;20070;-86
2022/02/07 09:40:10;;;;;;;19.73;4.93;;;;;;;5.04;100.00;101568.41;5020243;28;20124;-87
2022/02/07 09:42:40;;;;;;;23.35;5.00;;;;;;;5.12;100.00;101587.31;5025213;28;20051;-86
2022/02/07 09:45:28;;;;;;;20.38;4.70;;;;;;;5.16;100.00;101579.03;5002882;28;20071;-85
2022/02/07 09:47:54;;;;;;;23.60;5.05;;;;;;;5.18;100.00;101587.75;5013047;28;20034;-86
2022/02/07 09:50:20;;;;;;;23.42;4.32;;;;;;;5.23;100.00;101599.88;5049031;28;20076;-86
2022/02/07 09:52:45;;;;;;;20.90;4.75;;;;;;;5.27;100.00;101593.38;5014505;28;20124;-86
2022/02/07 09:55:11;;;;;;;18.55;4.03;;;;;;;5.31;100.00;101595.69;5017257;28;20048;-86
2022/02/07 09:57:36;;;;;;;23.55;4.63;;;;;;;5.35;100.00;101607.84;5010654;28;20106;-86
2022/02/07 10:00:06;;;;;;;17.67;3.42;;;;;;;5.37;100.00;101583.75;5005586;28;20068;-85
2022/02/07 10:05:11;;;;;;;19.00;4.57;;;;;;;5.44;100.00;101635.59;4997157;28;20037;-85
2022/02/07 10:07:53;;;;;;;24.15;4.88;;;;;;;5.49;100.00;101627.25;4979408;28;20406;-86
2022/02/07 10:15:24;;;;;;;20.42;4.82;;;;;;;5.57;100.00;101649.72;5029165;28;20483;-85
2022/02/07 10:18:13;;;;;;;17.58;3.80;;;;;;;5.59;100.00;101663.78;5037909;28;20045;-86
2022/02/07 10:40:38;;;;;;;21.42;4.18;;;;;;;6.01;100.00;101684.75;5007812;28;20054;-85
2022/02/07 10:46:03;;;;;;;19.35;4.15;;;;;;;6.12;100.00;101698.13;5009892;28;20045;-85
2022/02/07 10:48:31;;;;;;;16.50;3.80;;;;;;;6.14;100.00;101701.56;5024593;28;20041;-85
2022/02/07 10:51:18;;;;;;;16.85;3.90;;;;;;;6.19;99.78;101709.22;5003065;28;20042;-85
2022/02/07 10:54:04;;;;;;;17.40;3.53;;;;;;;6.14;97.78;101708.69;4978864;28;20121;-86
2022/02/07 10:56:38;;;;;;;26.05;4.50;;;;;;;6.16;97.11;101712.94;4987300;28;20501;-85
2022/02/07 10:59:07;;;;;;;16.58;3.80;;;;;;;6.21;96.93;101712.59;4982352;28;20046;-85
2022/02/07 11:02:14;;;;;;;;;;;;;;;6.20;97.08;101721.56;4986204;28;20121;-86
2022/02/07 11:04:41;;;;;;;19.55;4.68;;;;;;;6.10;97.41;101721.41;4981352;28;19921;-86
2022/02/07 11:07:10;;;;;;;17.15;3.78;;;;;;;6.14;98.48;101722.03;4949409;28;20038;-85
2022/02/07 11:12:44;;;;;;;18.83;3.78;;;;;;;6.16;98.47;101720.06;4971179;28;20072;-85
2022/02/07 11:17:36;;;;;;;18.75;4.50;;;;;;;6.38;99.09;101736.19;5015744;28;20388;-85
2022/02/07 11:20:28;;;;;;;19.98;4.78;;;;;;;6.53;97.07;101731.53;5020090;28;20033;-85
2022/02/07 11:28:27;;;;;;;22.17;3.72;;;;;;;6.51;95.33;101747.66;5014520;28;20128;-86
2022/02/07 11:30:55;;;;;;;15.05;3.53;;;;;;;6.46;94.91;101732.97;5024966;28;20504;-85
2022/02/07 11:33:39;;;;;;;15.80;3.40;;;;;;;6.51;94.79;101728.13;5023566;28;20397;-86
2022/02/07 11:36:10;;;;;;;17.58;4.07;;;;;;;6.50;94.99;101745.97;5018407;28;20042;-86
2022/02/07 11:38:36;;;;;;;13.57;3.92;;;;;;;6.49;95.44;101754.06;5024161;28;20041;-86
2022/02/07 11:41:06;;;;;;;17.05;3.60;;;;;;;6.54;96.08;101750.09;5027677;28;20076;-85
2022/02/07 11:43:32;;;;;;;19.08;3.97;;;;;;;6.57;93.91;101742.84;5011200;28;20037;-85
2022/02/07 11:46:05;;;;;;;15.35;3.17;;;;;;;6.70;94.62;101757.81;5015229;28;20124;-84
2022/02/07 11:48:49;;;;;;;17.42;4.50;;;;;;;6.86;93.76;101736.13;5004714;28;20057;-85
2022/02/07 11:51:26;;;;;;;19.70;3.20;;;;;;;6.92;94.08;101746.34;5010375;28;20038;-84
2022/02/07 11:53:58;;;;;;;14.85;3.30;;;;;;;6.94;91.68;101754.25;5010711;28;20034;-86
2022/02/07 11:56:34;;;;;;;20.23;4.60;;;;;;;6.90;92.69;101748.25;5017175;28;20049;-85
2022/02/07 11:59:07;;;;;;;14.63;3.33;;;;;;;6.88;93.46;101760.03;5027432;28;20042;-84
2022/02/07 12:01:57;;;;;;;17.33;3.33;;;;;;;6.93;92.07;101748.06;5020160;28;20519;-85
2022/02/07 12:04:24;;;;;;;20.73;3.30;;;;;;;7.07;89.95;101764.81;5021067;28;20037;-85
2022/02/07 12:07:19;;;;;;;22.08;3.25;;;;;;;7.15;90.06;101760.56;5021041;28;20117;-85
2022/02/07 12:10:03;;;;;;;12.95;2.80;;;;;;;7.22;91.26;101763.63;5017253;28;20049;-85
2022/02/07 12:12:45;;;;;;;20.20;3.63;;;;;;;7.22;89.40;101783.19;5021871;28;20090;-86
2022/02/07 12:15:32;;;;;;;11.15;3.05;;;;;;;7.19;90.53;101767.41;5003941;28;20041;-86
2022/02/07 12:18:00;;;;;;;15.02;3.03;;;;;;;7.20;89.40;101768.25;5008073;28;20066;-85
2022/02/07 12:20:37;;;;;;;13.68;3.00;;;;;;;7.24;91.13;101772.38;5019860;28;20049;-86
2022/02/07 12:23:14;;;;;;;15.75;3.97;;;;;;;7.37;90.67;101774.94;5038376;28;20049;-86
2022/02/07 12:25:44;;;;;;;14.32;3.38;;;;;;;7.47;90.10;101767.91;5028527;28;20567;-85
2022/02/07 12:28:16;;;;;;;17.67;3.08;;;;;;;7.57;90.18;101773.41;5038094;28;20522;-86
2022/02/07 12:30:59;;;;;;;10.93;2.58;;;;;;;7.53;85.66;101771.91;5026101;28;20029;-87
2022/02/07 12:33:24;;;;;;;12.38;2.33;;;;;;;7.39;85.99;101789.88;5018422;28;20508;-86
2022/02/07 12:35:50;;;;;;;17.00;3.97;;;;;;;7.39;89.82;101791.69;5025967;28;20084;-86
2022/02/07 12:38:15;;;;;;;18.73;3.40;;;;;;;7.28;88.24;101792.53;5022810;28;20500;-87
2022/02/07 12:40:42;;;;;;;12.80;2.60;;;;;;;7.16;88.84;101809.47;5009696;28;20405;-87
2022/02/07 12:43:12;;;;;;;12.90;3.13;;;;;;;7.10;90.79;101804.59;5016354;28;20042;-86
2022/02/07 12:45:40;;;;;;;12.00;2.45;;;;;;;7.15;90.54;101808.63;5008126;28;20647;-87
2022/02/07 12:48:12;;;;;;;14.75;2.95;;;;;;;7.15;89.09;101813.97;5007304;28;20042;-86
2022/02/07 12:50:39;;;;;;;12.50;3.63;;;;;;;7.19;89.49;101826.13;5026712;28;20048;-86
2022/02/07 12:53:04;;;;;;;10.60;2.10;;;;;;;7.28;87.81;101805.88;5011621;28;20083;-87
2022/02/07 12:55:31;;;;;;;11.85;2.85;;;;;;;7.39;88.23;101821.06;5022440;28;20049;-87
2022/02/07 12:57:58;;;;;;;14.40;3.47;;;;;;;7.54;90.03;101827.03;5025334;28;20050;-87
2022/02/07 13:00:24;;;;;;;11.55;2.78;;;;;;;7.56;89.42;101814.41;5047232;28;20042;-86
2022/02/07 13:02:50;;;;;;;15.20;2.55;;;;;;;7.59;89.30;101835.53;5023204;28;20053;-87
2022/02/07 13:05:19;;;;;;;14.02;3.83;;;;;;;7.58;90.44;101839.19;5037928;28;20057;-87
2022/02/07 13:07:48;;;;;;;;;;;;;;;7.68;89.86;101832.16;5013333;28;20034;-87
2022/02/07 13:10:20;;;;;;;13.35;3.00;;;;;;;7.51;91.96;101822.81;5028911;28;20012;-86
2022/02/07 13:15:23;;;;;;;14.50;3.28;;;;;;;7.63;89.80;101848.56;5029736;28;20049;-87
2022/02/07 13:17:55;;;;;;;15.32;3.22;;;;;;;7.48;86.85;101823.03;5029567;28;20041;-86
2022/02/07 13:20:22;;;;;;;13.93;3.05;;;;;;;7.42;88.45;101835.03;5015340;28;20095;-86
2022/02/07 13:22:59;;;;;;;13.05;2.47;;;;;;;7.27;86.45;101838.88;5030658;28;20048;-86
2022/02/07 13:25:24;;;;;;;14.00;2.72;;;;;;;7.23;89.64;101840.09;5034559;28;20504;-84
2022/02/07 13:27:55;;;;;;;13.45;2.95;;;;;;;7.12;89.65;101848.91;5014977;28;20137;-88
2022/02/07 13:30:20;;;;;;;14.23;2.72;;;;;;;7.03;90.73;101844.28;5017054;28;20042;-87
2022/02/07 13:32:46;;;;;;;11.93;2.90;;;;;;;6.97;92.60;101856.25;5047036;28;20075;-87
2022/02/07 13:35:16;;;;;;;13.35;2.72;;;;;;;6.88;91.90;101851.63;5028655;28;20042;-86
2022/02/07 13:37:43;;;;;;;11.10;2.25;;;;;;;6.87;88.76;101857.91;5037635;28;20041;-86
2022/02/07 13:40:11;;;;;;;10.98;2.63;;;;;;;7.11;94.42;101862.38;4985149;28;20124;-87
2022/02/07 13:42:39;;;;;;;12.48;2.60;;;;;;;7.21;91.35;101863.38;5011510;28;20084;-87
2022/02/07 13:45:10;;;;;;;10.57;2.58;;;;;;;7.35;91.34;101863.19;5008134;28;20068;-87
2022/02/07 13:47:40;;;;;;;15.95;3.05;;;;;;;7.33;90.30;101873.13;5013816;28;20037;-87
2022/02/07 13:50:14;;;;;;;20.23;4.82;;;;;;;7.28;87.58;101874.44;4998684;28;20546;-87
2022/02/07 13:52:42;;;;;;;16.92;4.18;;;;;;;7.28;89.28;101871.75;5017915;28;20096;-87
2022/02/07 13:55:35;;;;;;;11.05;3.42;;;;;;;7.24;88.85;101884.50;5018833;28;20092;-87
2022/02/07 13:58:02;;;;;;;18.40;4.78;;;;;;;7.33;90.41;101878.47;5003256;28;20121;-86
2022/02/07 14:00:33;;;;;;;12.43;2.78;;;;;;;7.38;84.93;101888.81;5017776;28;20385;-88
2022/02/07 14:03:16;;;;;;;17.10;4.13;;;;;;;7.56;84.85;101847.31;5033358;28;20038;-88
2022/02/07 14:05:51;;;;;;;12.57;3.70;;;;;;;7.72;87.56;101896.91;5001249;28;20049;-88
2022/02/07 14:08:28;;;;;;;13.30;2.92;;;;;;;7.80;82.75;101892.66;5017410;28;20050;-87
2022/02/07 14:10:54;;;;;;;9.77;2.40;;;;;;;7.89;81.86;101893.78;5001896;28;20125;-87
2022/02/07 14:13:19;;;;;;;10.25;3.33;;;;;;;7.90;82.66;101887.44;5029892;28;20153;-87
2022/02/07 14:15:46;;;;;;;12.73;2.70;;;;;;;7.91;86.57;101898.03;5013249;28;20505;-87
2022/02/07 14:18:15;;;;;;;12.70;2.78;;;;;;;7.99;87.62;101896.56;5019964;28;20043;-87
2022/02/07 14:20:41;;;;;;;11.35;2.67;;;;;;;7.93;86.62;101900.56;5034222;28;20052;-85
2022/02/07 14:23:10;;;;;;;10.40;2.10;;;;;;;8.04;86.52;101913.09;5001425;28;20446;-87
2022/02/07 14:25:37;;;;;;;14.70;2.85;;;;;;;8.10;88.90;101905.44;5022567;28;20042;-87
2022/02/07 14:28:04;;;;;;;11.07;2.17;;;;;;;8.16;85.44;101903.25;5018277;28;20073;-87
2022/02/07 14:30:33;;;;;;;10.27;2.70;;;;;;;8.11;84.17;101911.63;5017363;28;20049;-88
2022/02/07 14:32:59;;;;;;;8.77;2.47;;;;;;;7.95;83.46;101906.66;5018006;28;20041;-88
2022/02/07 14:35:26;;;;;;;10.73;2.75;;;;;;;7.95;84.65;101913.81;5017492;28;20137;-87
2022/02/07 14:37:52;;;;;;;11.65;2.35;;;;;;;7.77;82.77;101918.75;5016548;28;20046;-87
2022/02/07 14:40:18;;;;;;;9.32;2.53;;;;;;;7.72;84.09;101911.09;5034944;28;20083;-87
2022/02/07 14:42:58;;;;;;;12.63;2.47;;;;;;;7.56;86.74;101935.47;5003908;28;20509;-91
2022/02/07 14:45:31;;;;;;;11.50;2.42;;;;;;;7.55;89.02;101935.59;4989820;28;20069;-87
2022/02/07 14:48:01;;;;;;;9.38;2.35;;;;;;;7.36;85.31;101944.13;4966789;28;20244;-87
2022/02/07 14:50:28;;;;;;;8.70;1.92;;;;;;;7.31;88.09;101933.81;4981977;28;20042;-85
2022/02/07 14:52:54;;;;;;;11.63;2.60;;;;;;;7.17;85.28;101944.69;4950636;28;20137;-87
2022/02/07 14:55:22;;;;;;;14.73;2.50;;;;;;;7.23;86.72;101962.91;4965397;28;20050;-87
2022/02/07 14:57:48;;;;;;;10.23;2.17;;;;;;;7.32;87.51;101946.19;4964354;28;20038;-86
2022/02/07 15:00:16;;;;;;;22.65;10.77;;;;;;;7.27;85.54;101948.34;4964350;28;20046;-86
2022/02/07 15:02:44;;;;;;;11.32;1.73;;;;;;;7.20;87.25;101952.44;4985129;28;20043;-87
2022/02/07 15:05:18;;;;;;;14.80;3.83;;;;;;;7.22;89.11;101946.03;4977229;28;20133;-86
2022/02/07 15:07:44;;;;;;;12.70;2.38;;;;;;;7.15;87.37;101957.28;4968956;28;20784;-87
2022/02/07 15:10:11;;;;;;;11.73;3.03;;;;;;;7.11;89.72;101955.81;4977171;28;20614;-88
2022/02/07 15:12:36;;;;;;;13.13;3.00;;;;;;;7.05;90.56;101969.59;4971713;28;20057;-87
2022/02/07 15:15:03;;;;;;;10.57;2.08;;;;;;;6.97;85.29;101975.50;4987151;28;20489;-87
2022/02/07 15:17:29;;;;;;;11.38;2.30;;;;;;;6.97;88.80;101968.34;4965801;28;20047;-88
2022/02/07 15:20:15;;;;;;;9.48;2.30;;;;;;;6.93;86.88;101979.34;4958163;28;20545;-86
2022/02/07 15:22:49;;;;;;;10.85;3.03;;;;;;;6.95;88.57;101978.25;4981382;28;20070;-87
2022/02/07 15:25:19;;;;;;;7.32;2.00;;;;;;;6.79;85.28;101969.69;4961268;28;20046;-89
2022/02/07 15:27:48;;;;;;;9.43;2.38;;;;;;;6.80;88.73;101992.72;4977715;28;20049;-88
2022/02/07 15:30:16;;;;;;;8.63;2.05;;;;;;;6.80;89.41;102002.56;4995574;28;20056;-86
2022/02/07 15:32:45;;;;;;;10.15;2.45;;;;;;;6.71;87.67;102004.06;5036837;28;20448;-88
2022/02/07 15:35:11;;;;;;;8.35;1.77;;;;;;;6.66;84.59;101991.03;5024232;28;20060;-87
2022/02/07 15:37:37;;;;;;;15.52;3.33;;;;;;;6.72;88.61;101995.09;5006192;28;20045;-84
2022/02/07 15:40:05;;;;;;;8.70;2.33;;;;;;;6.68;87.52;102005.13;5036834;28;20047;-86
2022/02/07 15:42:31;;;;;;;9.52;3.22;;;;;;;6.69;89.16;101996.16;5026605;28;20045;-86
2022/02/07 15:45:00;;;;;;;9.88;2.38;;;;;;;6.62;87.50;102007.38;5001460;28;20115;-87
2022/02/07 15:47:30;;;;;;;10.15;2.10;;;;;;;6.53;87.38;101990.19;5013136;28;20057;-86
2022/02/07 15:49:55;;;;;;;9.85;2.70;;;;;;;6.46;86.57;101995.13;5008000;28;20061;-87
2022/02/07 15:52:20;;;;;;;10.25;2.05;;;;;;;6.41;85.92;102013.25;5036029;28;20140;-86
2022/02/07 15:54:51;;;;;;;9.57;2.65;;;;;;;6.37;84.97;102000.25;4997364;28;20041;-87
2022/02/07 15:57:17;;;;;;;9.60;2.10;;;;;;;6.27;84.26;102006.25;5001625;28;20049;-88
2022/02/07 15:59:42;;;;;;;7.22;2.30;;;;;;;6.31;87.08;102001.53;4989354;28;20515;-89
2022/02/07 16:02:08;;;;;;;14.77;2.97;;;;;;;6.25;85.52;101996.66;4965012;28;20038;-89
2022/02/07 16:04:37;;;;;;;11.55;3.35;;;;;;;6.22;86.50;102007.53;4968323;28;20057;-90
2022/02/07 16:07:04;;;;;;;10.63;2.83;;;;;;;6.20;87.42;101996.09;4934650;28;20815;-89
2022/02/07 16:09:30;;;;;;;11.15;2.60;;;;;;;6.19;88.87;101997.94;4942159;28;20046;-89
2022/02/07 16:11:58;;;;;;;10.65;2.08;;;;;;;6.09;86.13;101997.69;4951371;28;20034;-88
2022/02/07 16:14:25;;;;;;;8.80;2.35;;;;;;;6.06;87.98;101997.06;4920842;28;20048;-88
2022/02/07 16:16:52;;;;;;;15.00;3.20;;;;;;;6.02;87.37;101995.56;4918611;29;20066;-89
2022/02/07 16:21:40;;;;;;;10.45;2.90;;;;;;;5.93;88.63;101991.72;5053333;27;20743;-92
2022/02/07 16:24:05;;;;;;;10.43;3.20;;;;;;;5.87;87.83;102008.94;5027817;28;20052;-95
2022/02/07 16:26:31;;;;;;;12.07;2.88;;;;;;;5.88;89.71;102012.47;5050476;28;20044;-92
2022/02/07 16:28:57;;;;;;;8.07;2.95;;;;;;;5.81;89.36;102020.03;5035302;28;20451;-91
2022/02/07 16:31:22;;;;;;;11.00;3.28;;;;;;;5.76;89.18;102016.81;5042824;28;20037;-91
2022/02/07 16:33:48;;;;;;;6.35;2.78;;;;;;;5.73;90.64;102024.16;5050539;28;20133;-92
2022/02/07 16:36:15;;;;;;;11.98;4.32;;;;;;;5.69;90.96;102010.16;5072531;28;20041;-91
2022/02/07 16:38:41;;;;;;;12.43;3.03;;;;;;;5.66;90.73;102021.03;5023613;28;20034;-92
2022/02/07 16:41:11;;;;;;;9.68;2.47;;;;;;;5.58;91.47;102024.22;5049409;28;20060;-90
2022/02/07 16:43:40;;;;;;;9.65;3.20;;;;;;;5.59;92.11;102020.59;5032615;28;20486;-92
2022/02/07 16:49:06;;;;;;;9.40;5.18;;;;;;;5.49;92.79;102037.28;5017958;28;20046;-91
2022/02/07 16:51:55;;;;;;;11.13;5.88;;;;;;;5.44;92.82;102032.28;5045120;28;20098;-92
2022/02/07 16:54:22;;;;;;;10.43;2.88;;;;;;;5.44;93.46;102042.91;4975623;28;20062;-93
2022/02/07 16:56:57;;;;;;;13.57;3.33;;;;;;;5.40;92.66;102046.72;4968801;28;20489;-92
2022/02/07 16:59:38;;;;;;;12.27;5.38;;;;;;;5.45;94.36;102043.75;4962915;28;20055;-90
2022/02/07 17:02:11;;;;;;;13.82;3.08;;;;;;;5.43;93.91;102030.53;4918843;29;20058;-90
2022/02/07 17:04:42;;;;;;;11.60;3.42;;;;;;;5.41;93.12;102040.47;4879985;29;20053;-89
2022/02/07 17:07:21;;;;;;;10.88;4.30;;;;;;;5.43;94.05;102038.53;4903882;29;20049;-91
2022/02/07 17:09:47;;;;;;;9.52;3.13;;;;;;;5.42;94.19;102051.00;4901235;29;20059;-91
2022/02/07 17:12:20;;;;;;;11.88;4.45;;;;;;;5.43;93.80;102043.84;4892121;29;20064;-91
2022/02/07 17:14:46;;;;;;;15.10;4.28;;;;;;;5.42;94.15;102037.69;4861276;29;20124;-91
2022/02/07 17:17:12;;;;;;;18.10;6.85;;;;;;;5.40;93.55;102030.75;4880108;29;20079;-91
2022/02/07 17:19:47;;;;;;;16.20;7.68;;;;;;;5.40;94.68;102039.56;4883943;29;20531;-90
2022/02/07 17:22:15;;;;;;;17.83;5.63;;;;;;;5.39;93.96;102050.34;4852794;29;20049;-89
2022/02/07 17:24:41;;;;;;;13.35;4.75;;;;;;;5.40;94.57;102052.88;4882273;29;20106;-90
2022/02/07 17:27:08;;;;;;;14.43;6.18;;;;;;;5.42;95.51;102051.00;4908556;29;20146;-90
2022/02/07 17:29:37;;;;;;;10.25;3.60;;;;;;;5.39;94.82;102058.31;4910746;29;20040;-91
2022/02/07 17:32:04;;;;;;;10.45;4.45;;;;;;;5.39;95.14;102053.84;4915237;29;20044;-91
2022/02/07 17:34:32;;;;;;;12.98;4.55;;;;;;;5.40;96.68;102057.38;4964546;28;20039;-90
2022/02/07 17:36:58;;;;;;;11.65;4.68;;;;;;;5.32;95.23;102049.91;4962599;28;20206;-90
2022/02/07 17:39:24;;;;;;;13.73;4.18;;;;;;;5.32;95.74;102049.00;4948155;28;20543;-91
2022/02/07 17:41:50;;;;;;;11.52;4.93;;;;;;;5.29;95.00;102054.53;4955867;28;20110;-91
2022/02/07 17:44:16;;;;;;;15.18;4.70;;;;;;;5.33;95.46;102045.41;4943441;29;20091;-90
2022/02/07 17:46:42;;;;;;;12.88;4.68;;;;;;;5.32;95.41;102051.69;4986703;28;20049;-92
2022/02/07 17:49:07;;;;;;;9.85;3.53;;;;;;;5.31;95.84;102053.50;4970381;28;20114;-90
2022/02/07 17:51:34;;;;;;;14.13;3.80;;;;;;;5.33;96.39;102048.09;4897263;29;20052;-89
2022/02/07 17:54:03;;;;;;;13.52;3.15;;;;;;;5.30;94.34;102058.94;4853234;29;20041;-90
2022/02/07 17:56:29;;;;;;;8.52;3.13;;;;;;;5.32;95.35;102059.66;4873209;29;20560;-90
2022/02/07 17:58:55;;;;;;;11.73;3.45;;;;;;;5.33;96.00;102054.25;4875633;29;20042;-90
2022/02/07 18:01:21;;;;;;;8.57;3.00;;;;;;;5.31;95.08;102057.97;4841292;29;20096;-91
2022/02/07 18:03:50;;;;;;;9.93;2.85;;;;;;;5.27;94.29;102053.81;4854101;29;20045;-91
2022/02/07 18:06:17;;;;;;;14.18;3.55;;;;;;;5.28;95.53;102053.69;4854235;29;20057;-90
2022/02/07 18:08:43;;;;;;;8.45;2.65;;;;;;;5.28;95.40;102058.16;4850979;29;20051;-91
2022/02/07 18:11:10;;;;;;;8.02;2.22;;;;;;;5.22;94.31;102051.44;4851695;29;20045;-89
2022/02/07 18:13:36;;;;;;;11.23;3.10;;;;;;;5.26;95.28;102052.06;4854775;29;20041;-90
2022/02/07 18:16:06;;;;;;;14.25;3.42;;;;;;;5.26;95.82;102060.06;4901228;29;20043;-90
2022/02/07 18:18:34;;;;;;;9.15;2.42;;;;;;;5.19;94.38;102052.47;4913756;29;20051;-91
2022/02/07 18:21:00;;;;;;;12.30;3.85;;;;;;;5.24;95.68;102062.84;4924650;29;20039;-90
2022/02/07 18:23:25;;;;;;;10.85;3.70;;;;;;;5.20;94.22;102059.50;4932166;29;20047;-91
2022/02/07 18:25:54;;;;;;;8.20;2.90;;;;;;;5.22;94.96;102047.91;4947923;29;20031;-92
2022/02/07 18:28:23;;;;;;;6.82;2.03;;;;;;;5.17;92.63;102064.16;5009613;28;20071;-90
2022/02/07 18:30:57;;;;;;;6.63;2.03;;;;;;;5.18;93.53;102079.22;5034821;28;20180;-93
2022/02/07 18:33:24;;;;;;;6.72;2.92;;;;;;;5.19;94.48;102060.47;4992300;28;20046;-93
2022/02/07 18:35:55;;;;;;;9.25;3.33;;;;;;;5.20;94.93;102078.13;4931562;28;20122;-92
2022/02/07 18:38:38;;;;;;;14.38;3.80;;;;;;;5.18;95.25;102082.72;4926774;29;20035;-92
2022/02/07 18:41:13;;;;;;;11.45;3.67;;;;;;;5.15;94.83;102074.06;4914165;29;20043;-93
2022/02/07 18:43:48;;;;;;;9.30;3.15;;;;;;;5.15;95.52;102074.94;4891657;29;20138;-93
2022/02/07 18:46:19;;;;;;;8.60;3.00;;;;;;;5.13;96.01;102076.81;4904052;29;20544;-94
2022/02/07 18:48:44;;;;;;;12.65;2.50;;;;;;;5.11;95.90;102081.38;4903916;29;20035;-93
2022/02/07 18:51:13;;;;;;;11.72;4.08;;;;;;;5.12;96.44;102093.75;4684799;28;4776317;-95
2022/02/07 18:53:49;;;;;;;11.50;3.05;;;;;;;5.11;96.24;102085.84;4760515;29;2896239;-94
2022/02/07 18:56:24;;;;;;;11.38;3.05;;;;;;;5.09;95.28;102079.75;4617349;29;6719678;-94
2022/02/07 18:59:01;;;;;;;12.18;3.17;;;;;;;5.09;95.71;102085.09;4843562;29;2194602;-92
2022/02/07 19:01:33;;;;;;;6.38;1.75;;;;;;;5.06;93.92;102079.97;4827906;28;2499924;-93
2022/02/07 19:04:15;;;;;;;9.00;2.33;;;;;;;5.06;94.93;102075.50;4922137;28;45459;-94
2022/02/07 19:06:43;;;;;;;9.52;2.00;;;;;;;5.03;93.66;102086.31;4574344;29;8685504;-94
2022/02/07 19:09:10;;;;;;;10.80;2.78;;;;;;;5.01;93.35;102088.25;4703635;28;3852622;-94
2022/02/07 19:11:39;;;;;;;5.57;1.75;;;;;;;5.01;93.09;102093.56;4740932;29;5764181;-94
2022/02/07 19:14:12;;;;;;;10.43;2.35;;;;;;;5.05;94.62;102087.09;4760616;29;4585960;-92
2022/02/07 19:16:47;;;;;;;11.48;3.08;;;;;;;5.02;92.77;102089.94;4890223;29;20037;-94
2022/02/07 19:19:34;;;;;;;11.80;3.80;;;;;;;5.00;93.14;102097.16;4906696;29;20044;-92
2022/02/07 19:22:12;;;;;;;10.77;3.50;;;;;;;4.98;93.58;102093.78;4659679;29;5918001;-92
2022/02/07 19:24:43;;;;;;;15.93;4.07;;;;;;;4.95;92.80;102089.50;4913506;29;20067;-93
2022/02/07 19:27:23;;;;;;;10.55;3.05;;;;;;;4.95;93.25;102092.16;4910276;29;20282;-93
2022/02/07 19:29:55;;;;;;;11.20;3.95;;;;;;;4.96;94.62;102096.50;4893561;29;20049;-92
2022/02/07 19:32:26;;;;;;;9.30;2.08;;;;;;;4.92;92.69;102088.81;4893139;29;115246;-93
2022/02/07 19:35:17;;;;;;;9.00;2.70;;;;;;;4.93;93.65;102098.50;4872809;29;75214;-92
2022/02/07 19:37:42;;;;;;;7.43;1.80;;;;;;;4.93;93.36;102102.03;4858023;29;20101;-95
2022/02/07 19:40:09;;;;;;;5.64;1.96;;;;;;;4.92;93.74;102095.00;4700055;28;5202583;-94
2022/02/07 19:45:25;;;;;;;10.57;1.70;;;;;;;4.90;91.38;102090.72;4856600;28;2667959;-94
2022/02/07 19:47:53;;;;;;;8.35;1.77;;;;;;;4.89;91.37;102083.69;4739645;28;4131160;-92
2022/02/07 19:50:20;;;;;;;10.20;3.03;;;;;;;4.93;93.96;102086.06;4869884;28;2216538;-93
2022/02/07 19:52:52;;;;;;;9.73;2.03;;;;;;;4.90;92.26;102069.44;4797619;28;3549477;-93
2022/02/07 19:55:28;;;;;;;10.73;2.70;;;;;;;4.87;91.84;102074.97;4737597;28;3597857;-93
2022/02/07 19:57:57;;;;;;;8.93;2.90;;;;;;;4.86;92.36;102083.88;4917890;29;20036;-93
2022/02/07 20:00:29;;;;;;;3.47;1.48;;;;;;;4.83;91.45;102076.09;4899189;28;20040;-94
2022/02/07 20:03:01;;;;;;;8.70;2.00;;;;;;;4.84;92.35;102109.72;4850915;29;20049;-93
2022/02/07 20:05:31;;;;;;;8.82;2.35;;;;;;;4.86;93.02;102091.84;4842587;29;20050;-93
2022/02/07 20:08:20;;;;;;;4.65;1.88;;;;;;;4.85;93.01;102087.50;4739818;29;4016176;-92
2022/02/07 20:10:52;;;;;;;12.05;3.55;;;;;;;4.85;93.94;102087.50;4818798;29;20076;-93
2022/02/07 20:13:29;;;;;;;9.60;2.63;;;;;;;4.83;93.83;102079.59;4806080;29;36033;-94
2022/02/07 20:26:31;;;;;;;7.80;2.10;;;;;;;4.74;92.88;102093.47;4561353;29;3923788;-93
2022/02/07 20:29:07;;;;;;;9.23;2.47;;;;;;;4.76;93.22;102078.28;4804642;29;183809;-94
2022/02/07 20:31:41;;;;;;;12.48;2.15;;;;;;;4.78;93.52;102099.47;4807532;29;20046;-93
2022/02/07 20:34:12;;;;;;;8.13;2.15;;;;;;;4.78;93.29;102095.00;4828505;29;20066;-93
2022/02/07 20:36:42;;;;;;;10.82;2.67;;;;;;;4.80;92.71;102089.56;4827027;29;20061;-92
2022/02/07 20:39:10;;;;;;;9.88;2.90;;;;;;;4.82;93.48;102088.53;4824845;29;20526;-93
2022/02/07 20:41:36;;;;;;;10.65;3.95;;;;;;;4.81;94.28;102093.97;4844062;29;20087;-93
2022/02/07 20:44:05;;;;;;;14.82;5.13;;;;;;;4.79;94.39;102093.19;4883912;29;20089;-93
2022/02/07 20:46:32;;;;;;;9.77;3.80;;;;;;;4.73;93.23;102089.97;4902105;29;20510;-93
2022/02/07 20:49:08;;;;;;;11.65;2.47;;;;;;;4.71;93.06;102094.50;4909411;29;20481;-94
2022/02/07 20:51:34;;;;;;;8.77;2.55;;;;;;;4.73;93.29;102089.97;4911076;29;20044;-94
2022/02/07 20:54:00;;;;;;;8.82;2.28;;;;;;;4.73;92.46;102097.94;4935556;29;20039;-93